Latest Weather Observations for Murrurundi Gap

IDN60801

Issued at 9:05 pm EST Tuesday 22 July 2014 (issued every 30 minutes, with the page automatically refreshed every 10 minutes)

About weather observations | Map of weather stations | Latest weather observations for NSW | Other Formats
Station Details ID: 061392 Name: MURRURUNDI GAP AWS Lat: -31.74 Lon: 150.79 Height: 729.4 m
Data from the previous 72 hours. | See also: Recent months for locations in New South Wales
Date/Time
EST
Temp
°C
App
Temp
°C
Dew
Point
Rel
Hum
%
Delta-T
°C
Wind Press
QNH
hPa
Press
MSL
hPa
Rain
since 9 am
mm
Dir
 
Spd
km/h
Gust
km/h
Spd
kts
Gust
kts
22/09:00pm 7.2 2.2 4.7 84 1.1 SE 20 24 11 13 1023.1 1023.4 0.0
22/08:30pm 8.1 3.2 5.0 81 1.4 SE 20 24 11 13 1023.1 - 0.0
22/08:00pm 7.8 2.8 4.7 81 1.4 SE 20 24 11 13 1023.1 1023.4 0.0
22/07:30pm 9.1 3.4 4.7 74 2.0 SSE 24 28 13 15 1023.1 - 0.0
22/07:00pm 9.0 4.1 5.0 76 1.9 SSE 20 28 11 15 1022.9 1023.3 0.0
22/06:30pm 9.3 3.9 4.7 73 2.1 SSE 22 28 12 15 1022.8 - 0.0
22/06:00pm 9.6 4.7 5.0 73 2.2 SE 20 24 11 13 1022.5 1022.9 0.0
22/05:30pm 9.7 4.3 4.7 71 2.3 SSE 22 26 12 14 1022.3 - 0.0
22/05:00pm 10.4 4.8 5.2 70 2.5 SSE 24 30 13 16 1022.0 1022.3 0.0
22/04:30pm 11.0 5.8 5.5 69 2.6 S 22 32 12 17 1021.8 - 0.0
22/04:00pm 11.1 6.4 6.0 71 2.5 SSE 20 32 11 17 1021.7 1022.0 0.0
22/03:30pm 11.5 6.0 5.8 68 2.8 S 24 32 13 17 1021.5 - 0.0
22/03:00pm 11.4 5.5 5.9 69 2.7 SSE 26 35 14 19 1021.2 1021.5 0.0
22/02:30pm 11.6 6.2 6.5 71 2.5 S 24 32 13 17 1021.3 - 0.0
22/02:00pm 11.4 6.0 6.5 72 2.4 SSE 24 32 13 17 1021.3 1021.7 0.0
22/01:30pm 11.6 6.4 7.3 75 2.1 SSE 24 32 13 17 1021.3 - 0.0
22/01:25pm 11.5 6.4 7.6 77 2.0 S 24 30 13 16 1021.4 - 0.0
22/01:12pm 11.6 7.0 8.3 80 1.7 SSE 22 30 12 16 1021.7 - 0.0
22/01:00pm 11.0 6.6 7.5 79 1.7 SSE 20 30 11 16 1021.7 1022.0 0.0
22/12:52pm 11.0 6.2 7.5 79 1.8 SSE 22 28 12 15 1021.8 - 0.0
22/12:30pm 10.8 6.4 7.5 80 1.7 SSE 20 22 11 12 1022.1 - 0.0
22/12:00pm 9.3 4.8 6.9 85 1.2 SSE 20 28 11 15 1022.5 1022.9 0.0
22/11:30am 9.5 5.0 7.1 85 1.2 ESE 20 28 11 15 1023.2 - 0.0
22/11:00am 9.1 4.7 7.5 90 0.8 SE 20 26 11 14 1023.5 1023.8 0.0
22/10:38am 8.0 3.0 7.9 99 0.0 SE 24 28 13 15 1023.6 - 0.0
22/10:30am 7.9 2.8 7.8 99 0.0 SE 24 30 13 16 1023.7 - 0.0
22/10:00am 8.0 3.3 7.9 99 0.0 SE 22 26 12 14 1023.9 1024.3 0.0
22/09:30am 7.6 3.2 7.5 99 0.0 SE 20 26 11 14 1023.8 - 0.0
22/09:00am 7.1 2.6 7.0 99 0.0 SE 20 24 11 13 1023.7 1024.1 0.2
22/08:30am 6.7 2.3 6.6 99 0.0 SE 19 22 10 12 1023.7 - 0.2
22/08:00am 6.5 1.9 6.4 99 0.0 SE 20 24 11 13 1023.5 1023.8 0.2
22/07:30am 6.5 1.9 6.4 99 0.0 SE 20 22 11 12 1023.3 - 0.0
22/07:00am 6.4 1.9 6.3 99 0.0 SE 19 22 10 12 1023.2 1023.5 0.0
22/06:30am 6.3 1.8 6.2 99 0.0 SE 19 20 10 11 1022.9 - 0.0
22/06:00am 6.3 1.8 6.2 99 0.0 SE 19 20 10 11 1022.5 1022.9 0.0
22/05:30am 6.4 1.9 6.3 99 0.0 SSE 19 20 10 11 1022.1 - 0.0
22/05:04am 6.4 1.9 6.3 99 0.0 SE 19 20 10 11 1022.0 - 0.0
22/05:00am 6.4 1.9 6.3 99 0.0 SE 19 20 10 11 1022.0 1022.3 0.0
22/04:30am 6.1 2.0 6.0 99 0.0 SE 17 19 9 10 1021.9 - 0.0
22/04:00am 6.3 2.2 6.2 99 0.0 SE 17 20 9 11 1022.1 1022.4 0.0
22/03:40am 6.5 2.1 6.4 99 0.0 SSE 19 20 10 11 1022.1 - 0.0
22/03:30am 6.5 2.1 6.4 99 0.0 SE 19 22 10 12 1022.1 - 0.0
22/03:00am 6.2 1.6 5.8 97 0.2 SE 19 20 10 11 1022.0 1022.3 0.0
22/02:30am 6.7 2.1 5.8 94 0.4 SE 19 19 10 10 1022.1 - 0.0
22/02:00am 7.0 2.5 5.9 93 0.5 SSE 19 20 10 11 1022.2 1022.5 0.0
22/01:30am 7.0 2.4 5.8 92 0.6 SE 19 20 10 11 1022.4 - 0.0
22/01:00am 7.3 3.1 5.8 90 0.7 SE 17 19 9 10 1022.5 1022.9 0.0
22/12:30am 7.3 3.1 5.8 90 0.7 SE 17 20 9 11 1022.6 - 0.0
22/12:00am 7.5 3.3 5.6 88 0.9 SE 17 20 9 11 1022.7 1023.1 0.0
 
Date/Time
EST
Temp
°C
App
Temp
°C
Dew
Point
Rel
Hum
%
Delta-T
°C
Wind Press
QNH
hPa
Press
MSL
hPa
Rain
since 9 am
mm
Dir
 
Spd
km/h
Gust
km/h
Spd
kts
Gust
kts
21/11:30pm 7.9 3.7 5.7 86 1.0 SE 17 19 9 10 1022.7 - 0.0
21/11:00pm 8.0 3.4 5.8 86 1.0 ESE 19 20 10 11 1022.9 1023.3 0.0
21/10:30pm 8.3 3.7 5.8 84 1.2 SE 19 20 10 11 1023.1 - 0.0
21/10:00pm 8.2 4.0 5.8 85 1.1 SE 17 20 9 11 1023.2 1023.5 0.0
21/09:30pm 8.3 3.7 5.4 82 1.4 SSE 19 24 10 13 1023.2 - 0.0
21/09:00pm 9.2 4.4 5.8 79 1.6 S 20 26 11 14 1023.1 1023.4 0.0
21/08:30pm 9.4 4.6 5.6 77 1.8 S 20 26 11 14 1023.2 - 0.0
21/08:00pm 9.4 4.2 5.6 77 1.8 S 22 28 12 15 1023.2 1023.5 0.0
21/07:30pm 9.5 4.3 5.3 75 2.0 S 22 28 12 15 1022.9 - 0.0
21/07:00pm 9.6 4.7 5.2 74 2.1 S 20 28 11 15 1022.8 1023.2 0.0
21/06:30pm 9.8 4.6 5.4 74 2.1 S 22 30 12 16 1022.6 - 0.0
21/06:00pm 10.2 5.0 5.6 73 2.2 S 22 30 12 16 1022.5 1022.9 0.0
21/05:30pm 10.5 5.9 6.3 75 2.0 S 20 26 11 14 1022.4 - 0.0
21/05:00pm 11.0 6.6 6.4 73 2.2 S 19 28 10 15 1022.3 1022.6 0.0
21/04:30pm 11.5 7.0 6.2 70 2.6 S 19 24 10 13 1022.2 - 0.0
21/04:00pm 12.2 8.1 6.3 67 2.9 ESE 17 22 9 12 1022.1 1022.4 0.0
21/03:30pm 12.2 7.6 6.3 67 2.9 ESE 20 24 11 13 1022.0 - 0.0
21/03:00pm 12.2 7.6 5.8 65 3.1 ESE 19 24 10 13 1021.9 1022.2 0.0
21/02:30pm 12.2 8.4 6.0 66 3.0 SE 15 20 8 11 1022.0 - 0.0
21/02:00pm 13.1 9.0 6.2 63 3.4 ESE 17 24 9 13 1022.2 1022.5 0.0
21/01:30pm 12.4 7.9 6.2 66 3.1 SE 19 22 10 12 1022.4 - 0.0
21/01:00pm 11.7 7.2 6.0 68 2.8 SE 19 24 10 13 1022.6 1023.0 0.0
21/12:30pm 11.1 6.3 5.4 68 2.7 SE 20 26 11 14 1023.1 - 0.0
21/12:00pm 9.8 4.5 4.8 71 2.3 SE 22 28 12 15 1023.7 1024.1 0.0
21/11:30am 8.3 3.6 5.1 80 1.5 SE 19 26 10 14 1024.2 - 0.0
21/11:00am 7.7 3.9 7.6 99 0.0 SE 17 22 9 12 1024.9 1025.3 0.0
21/10:39am 7.2 2.9 7.1 99 0.0 ESE 19 22 10 12 1025.1 - 0.0
21/10:30am 7.2 3.3 7.1 99 0.0 ESE 17 19 9 10 1025.3 - 0.0
21/10:21am 7.0 3.1 6.9 99 0.0 ESE 17 20 9 11 1025.4 - 0.0
21/10:00am 6.8 2.8 6.7 99 0.0 ESE 17 20 9 11 1025.5 1025.9 0.0
21/09:30am 6.2 2.1 6.1 99 0.0 ESE 17 20 9 11 1025.7 - 0.0
21/09:00am 6.0 1.3 5.9 99 0.0 SE 20 24 11 13 1025.6 1026.0 0.0
21/08:30am 5.8 0.6 5.7 99 0.0 SE 22 26 12 14 1025.5 - 0.0
21/08:00am 5.6 -0.4 5.5 99 0.0 SE 26 32 14 17 1025.1 1025.5 0.0
21/07:30am 5.4 -0.6 5.3 99 0.0 SE 26 33 14 18 1024.9 - 0.0
21/07:00am 5.4 -0.2 5.3 99 0.0 SE 24 32 13 17 1024.9 1025.3 0.0
21/06:30am 5.9 0.4 5.8 99 0.0 SE 24 30 13 16 1024.7 - 0.0
21/06:00am 6.1 0.6 6.0 99 0.0 SSE 24 30 13 16 1024.6 1024.9 0.0
21/05:30am 6.2 0.4 6.1 99 0.0 SSE 26 32 14 17 1024.1 - 0.0
21/05:00am 6.4 0.6 6.3 99 0.0 SSE 26 30 14 16 1024.0 1024.4 0.0
21/04:30am 6.2 0.7 6.1 99 0.0 SSE 24 28 13 15 1024.1 - 0.0
21/04:00am 6.3 0.9 6.2 99 0.0 SSE 24 28 13 15 1024.0 1024.4 0.0
21/03:30am 6.5 0.7 6.4 99 0.0 SSE 26 32 14 17 1024.0 - 0.0
21/03:21am 6.6 0.9 6.5 99 0.0 SSE 26 30 14 16 1023.9 - 0.0
21/03:00am 6.9 1.2 6.5 97 0.2 SSE 26 32 14 17 1024.0 1024.4 0.0
21/02:30am 7.0 1.7 6.6 97 0.2 SSE 24 28 13 15 1024.2 - 0.0
21/02:00am 7.1 1.7 6.5 96 0.3 SE 24 30 13 16 1024.3 1024.7 0.0
21/01:30am 7.3 1.6 6.6 95 0.3 SE 26 33 14 18 1024.4 - 0.0
21/01:00am 7.6 1.1 6.5 93 0.5 SE 30 37 16 20 1024.2 1024.6 0.0
21/12:30am 7.6 2.2 6.5 93 0.5 SE 24 30 13 16 1024.7 - 0.0
21/12:09am 7.6 1.5 6.5 93 0.5 SE 28 33 15 18 1024.3 - 0.0
21/12:00am 7.7 1.2 6.6 93 0.5 SE 30 39 16 21 1024.3 1024.7 0.0
 
Date/Time
EST
Temp
°C
App
Temp
°C
Dew
Point
Rel
Hum
%
Delta-T
°C
Wind Press
QNH
hPa
Press
MSL
hPa
Rain
since 9 am
mm
Dir
 
Spd
km/h
Gust
km/h
Spd
kts
Gust
kts
20/11:39pm 7.9 0.5 6.7 92 0.6 SE 35 44 19 24 1024.3 - 0.0
20/11:30pm 7.8 0.4 6.7 93 0.5 SE 35 43 19 23 1024.2 - 0.0
20/11:00pm 8.0 0.6 6.6 91 0.7 SSE 35 43 19 23 1024.4 1024.8 0.0
20/10:30pm 8.0 1.9 6.6 91 0.7 SSE 28 35 15 19 1025.1 - 0.0
20/10:00pm 8.0 3.0 6.6 91 0.7 SSE 22 30 12 16 1025.2 1025.6 0.0
20/09:30pm 7.9 2.6 6.7 92 0.6 SSE 24 32 13 17 1025.0 - 0.0
20/09:00pm 8.1 3.2 6.9 92 0.6 SE 22 30 12 16 1025.2 1025.6 0.0
20/08:30pm 8.2 2.5 6.8 91 0.7 ESE 26 33 14 18 1025.0 - 0.0
20/08:00pm 8.2 1.4 6.8 91 0.7 SE 32 41 17 22 1024.7 1025.0 0.0
20/07:30pm 8.3 1.4 6.6 89 0.8 SSE 32 39 17 21 1024.4 - 0.0
20/07:00pm 8.4 0.9 6.4 87 1.0 SE 35 43 19 23 1024.0 1024.4 0.0
20/06:59pm 8.4 0.9 6.4 87 1.0 SE 35 43 19 23 1024.0 - 0.0
20/06:30pm 8.5 1.0 6.1 85 1.1 SE 35 44 19 24 1023.9 - 0.0
20/06:00pm 8.6 -0.1 6.1 84 1.2 SE 41 50 22 27 1023.4 1023.7 0.0
20/05:30pm 8.8 0.5 5.9 82 1.4 SE 39 48 21 26 1023.5 - 0.0
20/05:00pm 9.0 -0.1 5.9 81 1.5 SE 43 59 23 32 1023.1 1023.4 0.0
20/04:30pm 9.2 -0.1 5.8 79 1.6 SE 44 59 24 32 1022.8 - 0.0
20/04:00pm 9.3 0.9 5.7 78 1.7 SE 39 48 21 26 1022.9 1023.3 0.0
20/03:30pm 9.5 2.3 5.7 77 1.8 SE 33 44 18 24 1023.4 - 0.0
20/03:00pm 9.4 2.3 5.6 77 1.8 SE 32 41 17 22 1023.5 1023.8 0.0
20/02:30pm 9.5 2.8 5.5 76 1.9 SE 30 39 16 21 1023.3 - 0.0
20/02:11pm 9.6 1.6 5.8 77 1.8 ESE 37 46 20 25 1023.1 - 0.0
20/02:00pm 9.0 1.7 5.6 79 1.6 ESE 33 44 18 24 1023.4 1023.7 0.0
20/01:30pm 8.7 0.7 5.6 81 1.5 SE 37 46 20 25 1023.1 - 0.0
20/01:00pm 8.1 -0.3 5.4 83 1.3 SSE 39 48 21 26 1023.3 1023.6 0.0
20/12:30pm 7.6 1.6 5.2 85 1.1 S 26 32 14 17 1024.0 - 0.0
20/12:00pm 7.5 1.4 4.8 83 1.2 SE 26 33 14 18 1024.2 1024.6 0.0
20/11:30am 7.5 1.0 4.8 83 1.2 SE 28 39 15 21 1024.2 - 0.0
20/11:00am 7.4 0.1 4.5 82 1.3 SE 32 41 17 22 1024.1 1024.5 0.0
20/10:30am 7.2 -1.5 4.3 82 1.3 SE 39 50 21 27 1023.8 - 0.0
20/10:00am 6.7 -2.4 3.9 82 1.2 SE 41 54 22 29 1023.9 1024.3 0.0
20/09:30am 6.6 -0.8 3.9 83 1.2 SE 32 41 17 22 1024.0 - 0.0
20/09:00am 6.1 -1.4 3.6 84 1.1 ESE 32 43 17 23 1024.0 1024.4 0.0
20/08:30am 6.0 -0.8 3.2 82 1.2 SE 28 39 15 21 1023.7 - 0.0
20/08:17am 6.2 -2.2 3.5 83 1.2 SE 37 56 20 30 1023.4 - 0.0
20/08:00am 6.1 -3.7 3.4 83 1.2 SE 44 57 24 31 1022.7 1023.1 0.0
20/07:30am 5.7 -4.5 3.2 84 1.1 SE 46 57 25 31 1022.5 - 0.0
20/07:27am 5.8 -4.4 3.3 84 1.1 SE 46 57 25 31 1022.4 - 0.0
20/07:24am 5.8 -4.4 3.3 84 1.1 SE 46 57 25 31 1022.4 - 0.0
20/07:05am 5.9 -5.1 3.2 83 1.2 SE 50 69 27 37 1022.0 - 0.0
20/07:00am 5.9 -5.1 3.1 82 1.2 SE 50 65 27 35 1022.0 1022.3 0.0
20/06:30am 5.9 -4.3 3.1 82 1.2 SE 46 57 25 31 1021.9 - 0.0
20/06:08am 5.8 -4.2 2.4 79 1.5 SSE 44 65 24 35 1021.8 - 0.0
20/06:00am 5.9 -3.9 2.5 79 1.5 SE 43 56 23 30 1022.0 1022.3 0.0
20/05:30am 5.7 -3.3 2.5 80 1.4 SSE 39 50 21 27 1021.9 - 0.0
20/05:00am 5.4 -3.6 2.4 81 1.3 SE 39 54 21 29 1021.9 1022.2 0.0
20/04:30am 5.8 -3.3 1.7 75 1.7 SE 39 50 21 27 1021.8 - 0.0
20/04:00am 6.0 -3.1 1.9 75 1.7 SE 39 48 21 26 1021.9 1022.2 0.0
20/03:30am 6.0 -2.4 1.7 74 1.8 SSE 35 43 19 23 1022.4 - 0.0
20/03:00am 6.7 -1.8 1.2 68 2.3 SSE 35 46 19 25 1022.3 1022.6 0.0
20/02:30am 6.9 -1.0 1.0 66 2.5 SE 32 46 17 25 1022.7 - 0.0
20/02:05am 6.9 -1.1 0.6 64 2.6 SSE 32 50 17 27 1022.7 - 0.0
20/02:00am 6.9 -1.1 0.6 64 2.6 SSE 32 43 17 23 1022.8 1023.2 0.0
20/01:30am 7.2 -0.4 0.6 63 2.7 SSE 30 43 16 23 1022.8 - 0.0
20/01:00am 7.4 -0.2 0.6 62 2.8 SSE 30 41 16 22 1023.1 1023.4 0.0
20/12:30am 7.6 0.8 0.8 62 2.8 SSE 26 37 14 20 1023.2 - 0.0
20/12:11am 7.6 0.0 0.8 62 2.8 SSE 30 48 16 26 1023.2 - 0.0
20/12:00am 7.6 0.4 0.8 62 2.8 SSE 28 41 15 22 1023.3 1023.6 0.0
 
Date/Time
EST
Temp
°C
App
Temp
°C
Dew
Point
Rel
Hum
%
Delta-T
°C
Wind Press
QNH
hPa
Press
MSL
hPa
Rain
since 9 am
mm
Dir
 
Spd
km/h
Gust
km/h
Spd
kts
Gust
kts
19/11:30pm 7.6 0.1 1.0 63 2.8 SE 30 46 16 25 1023.1 - 0.0
19/11:00pm 7.3 0.1 1.0 64 2.6 SE 28 41 15 22 1023.2 1023.5 0.0
19/10:49pm 7.6 0.0 0.8 62 2.8 SE 30 48 16 26 1022.9 - 0.0
19/10:30pm 7.4 0.2 0.6 62 2.8 SE 28 39 15 21 1023.3 - 0.0
19/10:00pm 7.5 0.3 0.7 62 2.8 SE 28 35 15 19 1023.2 1023.5 0.0
19/09:30pm 7.9 -1.4 0.6 60 3.1 SE 39 57 21 31 1022.7 - 0.0
19/09:28pm 7.9 -1.0 0.9 61 2.9 SE 37 57 20 31 1022.7 - 0.0

Other Formats:

Comma delimited format used in spreadsheet applications
http://www.bom.gov.au/fwo/IDN60801/IDN60801.95747.axf

JavaScript Object Notation format (JSON) in row-major order
http://www.bom.gov.au/fwo/IDN60801/IDN60801.95747.json